createdAt,value
2022-08-16T00:03:13.667Z,82.08
2022-08-16T00:06:18.632Z,81.96
2022-08-16T00:09:24.889Z,82.38
2022-08-16T00:12:31.970Z,82.48
2022-08-16T00:15:50.906Z,83.03
2022-08-16T00:18:56.181Z,83.43
2022-08-16T00:22:06.807Z,83.75
2022-08-16T00:26:35.717Z,83.84
2022-08-16T00:28:46.174Z,84.29
2022-08-16T00:31:59.624Z,84.87
2022-08-16T00:35:13.268Z,85.59
2022-08-16T00:38:40.353Z,86.03
2022-08-16T00:41:46.852Z,86.40
2022-08-16T00:44:57.541Z,86.67
2022-08-16T00:48:04.393Z,86.74
2022-08-16T00:51:29.766Z,86.86
2022-08-16T00:54:33.942Z,87.04
2022-08-16T00:57:59.205Z,86.83
2022-08-16T01:01:03.398Z,87.00
2022-08-16T01:04:29.569Z,87.24
2022-08-16T01:07:51.020Z,87.11
2022-08-16T01:10:59.840Z,87.23
2022-08-16T01:14:14.099Z,87.29
2022-08-16T01:17:25.060Z,87.53
2022-08-16T01:20:36.574Z,87.55
2022-08-16T01:24:53.314Z,87.95
2022-08-16T01:27:43.929Z,88.17
2022-08-16T01:30:53.789Z,88.15
2022-08-16T01:33:57.959Z,88.56
2022-08-16T01:37:05.240Z,88.77
2022-08-16T01:40:13.564Z,89.22
2022-08-16T01:43:20.679Z,89.57
2022-08-16T01:46:39.594Z,89.95
2022-08-16T01:50:41.265Z,90.20
2022-08-16T01:53:10.080Z,90.34
2022-08-16T01:56:24.485Z,90.25
2022-08-16T01:59:30.768Z,90.39
2022-08-16T02:02:34.603Z,90.35
2022-08-16T02:05:51.765Z,90.33
2022-08-16T02:08:56.438Z,90.27
2022-08-16T02:12:49.406Z,90.37
2022-08-16T02:15:35.308Z,89.82
2022-08-16T02:18:40.226Z,89.42
2022-08-16T02:22:09.034Z,89.56
2022-08-16T02:25:15.065Z,89.64
2022-08-16T02:28:23.570Z,89.70
2022-08-16T02:32:03.558Z,89.69
2022-08-16T02:34:51.346Z,89.55
2022-08-16T02:38:01.719Z,89.63
2022-08-16T02:41:12.415Z,89.62
2022-08-16T02:44:19.436Z,89.37
2022-08-16T02:47:25.097Z,89.42
2022-08-16T02:50:53.705Z,89.35
2022-08-16T02:53:53.515Z,89.17
2022-08-16T02:56:57.149Z,89.02
2022-08-16T03:00:33.783Z,88.74
2022-08-16T03:04:39.885Z,88.22
2022-08-16T03:06:56.393Z,87.84
2022-08-16T03:10:00.933Z,87.50
2022-08-16T03:13:12.563Z,87.09
2022-08-16T03:16:32.920Z,87.08
2022-08-16T03:19:47.139Z,87.05
2022-08-16T03:23:00.156Z,87.05
2022-08-16T03:26:06.066Z,87.20
2022-08-16T03:29:12.103Z,87.35
2022-08-16T03:32:17.531Z,87.57
2022-08-16T03:35:33.087Z,87.97
2022-08-16T03:38:38.051Z,88.26
2022-08-16T03:41:50.661Z,88.54
2022-08-16T03:45:03.903Z,88.64
2022-08-16T03:48:14.882Z,88.80
2022-08-16T03:51:23.593Z,89.00
2022-08-16T03:54:29.402Z,88.93
2022-08-16T03:57:36.287Z,89.11
2022-08-16T04:00:41.399Z,88.95
2022-08-16T04:03:46.599Z,89.15
2022-08-16T04:06:50.284Z,89.07
2022-08-16T04:09:54.931Z,88.93
2022-08-16T04:13:04.698Z,88.86
2022-08-16T04:16:27.470Z,88.01
2022-08-16T04:19:34.929Z,88.28
2022-08-16T04:22:39.865Z,87.96
2022-08-16T04:25:47.101Z,87.92
2022-08-16T04:28:53.568Z,88.14
2022-08-16T04:32:01.082Z,88.07
2022-08-16T04:35:15.061Z,88.30
2022-08-16T04:38:21.196Z,88.45
2022-08-16T04:41:32.675Z,88.56
2022-08-16T04:44:54.140Z,88.76
2022-08-16T04:48:00.116Z,88.89
2022-08-16T04:51:12.290Z,88.47
2022-08-16T04:54:19.498Z,88.90
2022-08-16T04:57:23.220Z,88.95
2022-08-16T05:00:34.032Z,88.86
2022-08-16T05:03:41.870Z,88.57
2022-08-16T05:07:03.208Z,88.57
2022-08-16T05:10:19.647Z,88.64
2022-08-16T05:13:40.753Z,88.46
2022-08-16T05:16:45.746Z,88.51
2022-08-16T05:19:57.638Z,88.21
2022-08-16T05:23:03.494Z,87.98
2022-08-16T05:26:19.586Z,88.00
2022-08-16T05:29:24.885Z,87.49
2022-08-16T05:32:48.311Z,86.82
2022-08-16T05:35:55.968Z,86.08
2022-08-16T05:39:03.634Z,85.41
2022-08-16T05:42:08.240Z,85.09
2022-08-16T05:45:12.884Z,84.52
2022-08-16T05:48:27.009Z,84.16
2022-08-16T05:51:38.675Z,83.93
2022-08-16T05:54:58.579Z,84.22
2022-08-16T05:58:05.765Z,84.19
2022-08-16T06:01:09.858Z,83.87
2022-08-16T06:04:34.570Z,83.69
2022-08-16T06:07:42.612Z,83.71
2022-08-16T06:11:05.618Z,83.64
2022-08-16T06:14:21.132Z,83.70
2022-08-16T06:17:43.219Z,83.05
2022-08-16T06:20:55.846Z,82.46
2022-08-16T06:24:01.475Z,82.25
2022-08-16T06:27:27.135Z,81.25
2022-08-16T06:30:45.205Z,81.64
2022-08-16T06:33:51.857Z,81.31
2022-08-16T06:36:59.336Z,80.80
2022-08-16T06:40:04.195Z,80.61
2022-08-16T06:43:09.271Z,80.77
2022-08-16T06:46:31.607Z,79.60
2022-08-16T06:49:35.810Z,79.24
2022-08-16T06:53:00.008Z,78.84
2022-08-16T06:56:05.994Z,78.53
2022-08-16T06:59:11.348Z,75.64
2022-08-16T07:02:32.909Z,73.18
2022-08-16T07:05:41.714Z,72.35
2022-08-16T07:08:46.548Z,71.19
2022-08-16T07:11:51.932Z,70.64
2022-08-16T07:15:00.735Z,68.79
2022-08-16T07:18:05.582Z,69.48
2022-08-16T07:21:10.051Z,69.35
2022-08-16T07:24:29.844Z,69.43
2022-08-16T07:27:37.263Z,70.01
2022-08-16T07:30:46.263Z,70.08
2022-08-16T07:33:53.203Z,69.67
2022-08-16T07:36:59.075Z,68.71
2022-08-16T07:40:11.145Z,68.36
2022-08-16T07:43:15.368Z,69.13
2022-08-16T07:46:39.277Z,67.67
2022-08-16T07:49:52.918Z,67.75
2022-08-16T07:52:57.269Z,67.63
2022-08-16T07:56:04.668Z,67.12
2022-08-16T07:59:09.785Z,66.38
2022-08-16T08:02:20.513Z,66.94
2022-08-16T08:05:35.526Z,66.11
2022-08-16T08:08:51.298Z,65.45
2022-08-16T08:12:00.864Z,65.43
2022-08-16T08:15:09.675Z,65.58
2022-08-16T08:18:30.631Z,65.22
2022-08-16T08:22:00.944Z,64.95
2022-08-16T08:25:03.563Z,64.88
2022-08-16T08:28:10.950Z,63.91
2022-08-16T08:31:16.233Z,62.17
2022-08-16T08:34:25.872Z,60.61
2022-08-16T08:37:54.324Z,60.01
2022-08-16T08:40:53.801Z,59.66
2022-08-16T08:43:58.882Z,58.84
2022-08-16T08:47:10.942Z,57.80
2022-08-16T08:50:31.569Z,57.43
2022-08-16T08:53:37.061Z,57.09
2022-08-16T08:56:45.822Z,56.16
2022-08-16T08:59:49.924Z,55.82
2022-08-16T09:02:57.719Z,55.57
2022-08-16T09:06:03.923Z,56.97
2022-08-16T09:09:09.620Z,57.23
2022-08-16T09:12:36.190Z,57.62
2022-08-16T09:15:41.358Z,58.06
2022-08-16T09:18:45.653Z,57.48
2022-08-16T09:21:56.239Z,57.73
2022-08-16T09:25:11.321Z,58.08
2022-08-16T09:29:13.311Z,57.71
2022-08-16T09:31:41.938Z,57.67
2022-08-16T09:34:45.998Z,56.96
2022-08-16T09:38:00.404Z,57.32
2022-08-16T09:41:14.934Z,56.88
2022-08-16T09:45:12.274Z,55.76
2022-08-16T09:47:57.064Z,54.63
2022-08-16T09:51:01.821Z,54.05
2022-08-16T09:54:09.770Z,53.89
2022-08-16T09:57:13.814Z,53.22
2022-08-16T10:00:42.200Z,53.31
2022-08-16T10:04:01.801Z,53.41
2022-08-16T10:07:14.959Z,53.17
2022-08-16T10:10:31.007Z,53.52
2022-08-16T10:13:34.684Z,54.13
2022-08-16T10:16:38.886Z,54.79
2022-08-16T10:19:43.262Z,54.43
2022-08-16T10:22:47.399Z,53.99
2022-08-16T10:27:17.690Z,54.54
2022-08-16T10:29:19.945Z,53.32
2022-08-16T10:32:25.159Z,53.19
2022-08-16T10:35:34.483Z,53.00
2022-08-16T10:38:51.829Z,52.86
2022-08-16T10:41:57.198Z,52.85
2022-08-16T10:45:03.704Z,52.78
2022-08-16T10:48:27.422Z,52.40
2022-08-16T10:51:34.316Z,50.84
2022-08-16T10:54:59.574Z,48.91
2022-08-16T10:58:11.434Z,49.71
2022-08-16T11:01:40.013Z,49.46
2022-08-16T11:08:07.085Z,49.34
2022-08-16T11:11:19.096Z,48.33
2022-08-16T11:14:25.212Z,47.32
2022-08-16T11:17:32.601Z,47.70
2022-08-16T11:20:42.258Z,47.19
2022-08-16T11:23:57.483Z,48.05
2022-08-16T11:27:23.982Z,48.32
2022-08-16T11:30:37.842Z,48.74
2022-08-16T11:33:58.622Z,48.51
2022-08-16T11:37:03.942Z,49.02
2022-08-16T11:40:11.003Z,48.71
2022-08-16T11:43:18.139Z,48.43
2022-08-16T11:46:45.012Z,48.08
2022-08-16T11:49:51.268Z,46.45
2022-08-16T11:52:54.975Z,45.20
2022-08-16T11:55:58.982Z,42.15
2022-08-16T11:59:03.378Z,40.46
2022-08-16T12:02:32.378Z,41.34
2022-08-16T12:05:36.793Z,41.72
2022-08-16T12:08:47.378Z,41.09
2022-08-16T12:11:53.008Z,40.41
2022-08-16T12:14:59.861Z,41.97
2022-08-16T12:18:07.091Z,41.59
2022-08-16T12:21:14.155Z,40.93
2022-08-16T12:24:18.078Z,40.93
2022-08-16T12:27:24.139Z,40.71
2022-08-16T12:30:37.737Z,41.21
2022-08-16T12:33:44.784Z,40.57
2022-08-16T12:36:48.756Z,40.31
2022-08-16T12:39:52.998Z,39.66
2022-08-16T12:43:00.935Z,38.98
2022-08-16T12:46:04.848Z,38.38
2022-08-16T12:49:13.098Z,37.69
2022-08-16T12:52:33.196Z,38.64
2022-08-16T12:55:41.909Z,39.28
2022-08-16T12:58:51.632Z,38.87
2022-08-16T13:01:58.142Z,39.04
2022-08-16T13:05:03.710Z,39.11
2022-08-16T13:08:20.046Z,37.83
2022-08-16T13:11:37.853Z,37.61
2022-08-16T13:14:46.907Z,38.38
2022-08-16T13:17:54.049Z,38.68
2022-08-16T13:21:00.126Z,39.25
2022-08-16T13:24:04.232Z,39.59
2022-08-16T13:27:09.455Z,39.10
2022-08-16T13:30:35.343Z,39.75
2022-08-16T13:33:38.081Z,40.13
2022-08-16T13:36:49.423Z,40.27
2022-08-16T13:39:53.809Z,41.13
2022-08-16T13:42:57.844Z,41.00
2022-08-16T13:46:04.397Z,40.66
2022-08-16T13:49:08.664Z,40.34
2022-08-16T13:52:14.655Z,40.82
2022-08-16T13:55:18.418Z,41.66
2022-08-16T13:58:36.778Z,42.35
2022-08-16T14:01:47.114Z,42.62
2022-08-16T14:05:04.979Z,42.48
2022-08-16T14:08:11.212Z,42.03
2022-08-16T14:11:16.434Z,42.45
2022-08-16T14:14:20.408Z,43.05
2022-08-16T14:18:15.990Z,42.63
2022-08-16T14:20:56.655Z,42.50
2022-08-16T14:24:02.702Z,42.50
2022-08-16T14:27:12.280Z,41.32
2022-08-16T14:30:20.814Z,39.10
2022-08-16T14:33:24.507Z,39.16
2022-08-16T14:36:30.570Z,39.11
2022-08-16T14:39:36.403Z,40.13
2022-08-16T14:42:44.446Z,41.18
2022-08-16T14:45:50.384Z,41.16
2022-08-16T14:48:55.764Z,40.89
2022-08-16T14:52:03.633Z,41.13
2022-08-16T14:55:11.942Z,42.45
2022-08-16T14:58:19.580Z,42.46
2022-08-16T15:01:24.580Z,42.50
2022-08-16T15:04:49.343Z,42.65
2022-08-16T15:07:54.163Z,42.57
2022-08-16T15:10:59.112Z,43.08
2022-08-16T15:14:03.846Z,43.00
2022-08-16T15:17:08.796Z,43.08
2022-08-16T15:20:13.420Z,43.73
2022-08-16T15:23:25.121Z,43.98
2022-08-16T15:26:42.768Z,44.55
2022-08-16T15:29:52.268Z,44.60
2022-08-16T15:33:05.703Z,45.88
2022-08-16T15:36:18.555Z,46.12
2022-08-16T15:39:30.327Z,46.18
2022-08-16T15:42:54.100Z,46.92
2022-08-16T15:46:34.700Z,46.14
2022-08-16T15:49:45.888Z,44.53
2022-08-16T15:52:51.123Z,43.37
2022-08-16T15:55:55.417Z,43.31
2022-08-16T15:59:00.951Z,43.46
2022-08-16T16:02:05.134Z,43.63
2022-08-16T16:05:11.119Z,42.87
2022-08-16T16:08:24.113Z,41.89
2022-08-16T16:11:28.125Z,42.66
2022-08-16T16:14:37.585Z,42.92
2022-08-16T16:17:42.068Z,43.72
2022-08-16T16:20:49.740Z,43.64
2022-08-16T16:23:57.963Z,44.47
2022-08-16T16:27:06.652Z,44.75
2022-08-16T16:30:33.365Z,44.33
2022-08-16T16:33:43.654Z,44.07
2022-08-16T16:36:48.458Z,44.69
2022-08-16T16:39:53.002Z,45.32
2022-08-16T16:43:00.079Z,45.44
2022-08-16T16:46:42.456Z,46.13
2022-08-16T16:49:32.964Z,47.13
2022-08-16T16:52:44.006Z,47.67
2022-08-16T16:55:52.149Z,48.63
2022-08-16T16:59:01.130Z,49.16
2022-08-16T17:02:46.166Z,49.64
2022-08-16T17:05:32.607Z,50.56
2022-08-16T17:08:37.858Z,52.10
2022-08-16T17:11:46.597Z,52.30
2022-08-16T17:14:58.930Z,52.96
2022-08-16T17:19:16.358Z,53.65
2022-08-16T17:21:28.278Z,54.25
2022-08-16T17:24:39.687Z,55.69
2022-08-16T17:27:43.827Z,56.07
2022-08-16T17:30:55.022Z,56.33
2022-08-16T17:34:00.158Z,53.08
2022-08-16T17:37:09.217Z,49.39
2022-08-16T17:40:37.246Z,48.52
2022-08-16T17:43:44.528Z,48.41
2022-08-16T17:46:52.568Z,48.61
2022-08-16T17:49:58.923Z,48.39
2022-08-16T17:53:03.276Z,48.26
2022-08-16T17:56:07.224Z,48.81
2022-08-16T17:59:11.261Z,49.27
2022-08-16T18:02:44.412Z,49.56
2022-08-16T18:05:40.281Z,49.61
2022-08-16T18:08:44.100Z,50.01
2022-08-16T18:11:49.035Z,50.42
2022-08-16T18:14:54.933Z,50.42
2022-08-16T18:18:02.272Z,50.22
2022-08-16T18:21:25.448Z,51.02
2022-08-16T18:24:30.479Z,51.40
2022-08-16T18:27:34.439Z,51.98
2022-08-16T18:30:38.358Z,52.24
2022-08-16T18:33:43.890Z,51.93
2022-08-16T18:36:49.447Z,51.65
2022-08-16T18:39:53.206Z,53.69
2022-08-16T18:43:00.328Z,54.33
2022-08-16T18:46:04.128Z,53.87
2022-08-16T18:49:08.308Z,53.11
2022-08-16T18:52:25.175Z,52.66
2022-08-16T18:55:33.571Z,53.25
2022-08-16T18:58:39.343Z,53.98
2022-08-16T19:01:43.045Z,54.60
2022-08-16T19:04:55.400Z,55.42
2022-08-16T19:08:05.075Z,56.36
2022-08-16T19:11:14.088Z,57.01
2022-08-16T19:14:18.270Z,57.99
2022-08-16T19:17:22.099Z,58.78
2022-08-16T19:20:29.516Z,59.57
2022-08-16T19:23:37.428Z,60.38
2022-08-16T19:26:42.685Z,60.87
2022-08-16T19:29:49.517Z,61.80
2022-08-16T19:32:53.498Z,62.58
2022-08-16T19:35:57.102Z,63.62
2022-08-16T19:39:05.880Z,64.32
2022-08-16T19:42:18.289Z,65.09
2022-08-16T19:45:23.525Z,65.85
2022-08-16T19:48:27.144Z,66.44
2022-08-16T19:51:31.361Z,67.05
2022-08-16T19:54:40.248Z,67.56
2022-08-16T19:57:46.839Z,68.22
2022-08-16T20:00:52.433Z,68.76
2022-08-16T20:04:00.352Z,69.28
2022-08-16T20:07:03.925Z,69.69
2022-08-16T20:10:13.195Z,70.04
2022-08-16T20:13:21.111Z,70.67
2022-08-16T20:16:25.344Z,71.11
2022-08-16T20:19:35.204Z,71.52
2022-08-16T20:23:00.307Z,71.92
2022-08-16T20:26:05.331Z,72.53
2022-08-16T20:29:08.918Z,73.00
2022-08-16T20:32:17.064Z,73.30
2022-08-16T20:35:24.840Z,73.22
2022-08-16T20:38:28.521Z,73.54
2022-08-16T20:41:33.871Z,73.38
2022-08-16T20:44:37.543Z,73.40
2022-08-16T20:47:41.753Z,73.18
2022-08-16T20:50:45.783Z,73.15
2022-08-16T20:53:49.427Z,73.04
2022-08-16T20:56:54.399Z,72.94
2022-08-16T20:59:58.048Z,72.80
2022-08-16T21:03:03.032Z,72.63
2022-08-16T21:06:07.437Z,72.52
2022-08-16T21:09:13.904Z,72.44
2022-08-16T21:12:18.984Z,72.37
2022-08-16T21:15:34.904Z,72.65
2022-08-16T21:18:38.730Z,72.34
2022-08-16T21:21:42.531Z,72.62
2022-08-16T21:24:47.255Z,72.47
2022-08-16T21:28:39.585Z,72.47
2022-08-16T21:31:19.438Z,72.59
2022-08-16T21:34:23.051Z,72.62
2022-08-16T21:37:26.793Z,72.64
2022-08-16T21:40:34.005Z,72.75
2022-08-16T21:43:39.049Z,72.93
2022-08-16T21:46:42.656Z,73.17
2022-08-16T21:49:46.509Z,73.19
2022-08-16T21:52:51.897Z,73.26
2022-08-16T21:55:58.830Z,73.59
2022-08-16T21:59:10.684Z,74.24
2022-08-16T22:02:17.940Z,74.92
2022-08-16T22:05:21.608Z,75.32
2022-08-16T22:08:25.475Z,75.72
2022-08-16T22:11:29.383Z,75.65
2022-08-16T22:14:34.971Z,75.72
2022-08-16T22:17:38.844Z,76.06
2022-08-16T22:20:43.555Z,76.33
2022-08-16T22:23:56.942Z,76.51
2022-08-16T22:27:01.992Z,76.71
2022-08-16T22:30:08.927Z,77.07
2022-08-16T22:33:16.048Z,77.02
2022-08-16T22:36:19.998Z,77.81
2022-08-16T22:39:23.929Z,78.25
2022-08-16T22:42:30.033Z,78.90
2022-08-16T22:45:36.106Z,79.67
2022-08-16T22:48:42.620Z,79.88
2022-08-16T22:51:47.062Z,80.69
2022-08-16T22:54:50.646Z,81.13
2022-08-16T22:57:55.596Z,81.46
2022-08-16T23:01:00.824Z,81.74
2022-08-16T23:04:05.313Z,81.88
2022-08-16T23:07:08.936Z,82.05
2022-08-16T23:10:12.518Z,82.22
2022-08-16T23:13:18.620Z,82.83
2022-08-16T23:16:32.769Z,83.44
2022-08-16T23:19:37.774Z,83.60
2022-08-16T23:23:21.172Z,83.86
2022-08-16T23:26:44.187Z,84.21
2022-08-16T23:29:34.012Z,84.29
2022-08-16T23:32:46.543Z,84.45
2022-08-16T23:35:54.520Z,84.59
2022-08-16T23:38:59.424Z,84.72
2022-08-16T23:42:03.086Z,85.01
2022-08-16T23:45:08.035Z,85.04
2022-08-16T23:48:16.418Z,85.39
2022-08-16T23:51:20.012Z,85.43
2022-08-16T23:54:23.809Z,85.54
2022-08-16T23:57:27.494Z,85.41
